createdAt,value
2023-05-02T00:02:08.359Z,11.27
2023-05-02T00:04:34.792Z,11.23
2023-05-02T00:07:01.194Z,11.25
2023-05-02T00:09:27.461Z,11.24
2023-05-02T00:11:53.733Z,11.23
2023-05-02T00:14:19.989Z,11.15
2023-05-02T00:16:46.296Z,11.12
2023-05-02T00:19:12.610Z,11.07
2023-05-02T00:21:38.852Z,11.08
2023-05-02T00:24:05.105Z,11.10
2023-05-02T00:26:31.378Z,11.13
2023-05-02T00:28:57.621Z,11.13
2023-05-02T00:31:23.909Z,11.15
2023-05-02T00:33:50.268Z,11.14
2023-05-02T00:36:16.571Z,11.12
2023-05-02T00:38:42.853Z,11.15
2023-05-02T00:41:09.100Z,11.13
2023-05-02T00:43:35.357Z,11.11
2023-05-02T00:46:01.649Z,11.10
2023-05-02T00:48:27.979Z,11.09
2023-05-02T00:50:54.240Z,11.07
2023-05-02T00:53:20.499Z,11.00
2023-05-02T00:55:46.776Z,10.99
2023-05-02T00:58:13.069Z,10.98
2023-05-02T01:00:39.328Z,10.94
2023-05-02T01:03:05.730Z,10.91
2023-05-02T01:05:32.052Z,10.84
2023-05-02T01:07:58.362Z,10.73
2023-05-02T01:10:24.653Z,10.66
2023-05-02T01:12:50.926Z,10.60
2023-05-02T01:15:17.196Z,10.61
2023-05-02T01:17:43.538Z,10.62
2023-05-02T01:20:09.809Z,10.59
2023-05-02T01:22:36.065Z,10.59
2023-05-02T01:25:02.356Z,10.57
2023-05-02T01:27:28.626Z,10.58
2023-05-02T01:29:54.910Z,10.56
2023-05-02T01:32:21.174Z,10.56
2023-05-02T01:34:47.477Z,10.53
2023-05-02T01:37:13.754Z,10.53
2023-05-02T01:39:40.022Z,10.49
2023-05-02T01:42:06.321Z,10.47
2023-05-02T01:44:32.600Z,10.48
2023-05-02T01:46:58.949Z,10.46
2023-05-02T01:49:25.276Z,10.42
2023-05-02T01:51:51.584Z,10.39
2023-05-02T01:54:17.851Z,10.39
2023-05-02T01:56:44.121Z,10.40
2023-05-02T01:59:10.383Z,10.39
2023-05-02T02:01:36.706Z,10.38
2023-05-02T02:04:03.127Z,10.36
2023-05-02T02:06:29.452Z,10.20
2023-05-02T02:08:55.805Z,10.13
2023-05-02T02:11:22.059Z,10.03
2023-05-02T02:13:48.316Z,9.91
2023-05-02T02:16:14.650Z,9.91
2023-05-02T02:18:40.959Z,9.85
2023-05-02T02:21:07.249Z,9.79
2023-05-02T02:23:33.665Z,9.74
2023-05-02T02:25:59.970Z,9.66
2023-05-02T02:28:26.213Z,9.53
2023-05-02T02:30:52.518Z,9.23
2023-05-02T02:33:18.799Z,9.02
2023-05-02T02:35:45.068Z,8.98
2023-05-02T02:38:11.355Z,8.95
2023-05-02T02:40:37.625Z,8.94
2023-05-02T02:43:03.957Z,8.92
2023-05-02T02:45:30.253Z,8.78
2023-05-02T02:47:56.509Z,8.71
2023-05-02T02:50:22.923Z,8.57
2023-05-02T02:52:49.205Z,8.55
2023-05-02T02:55:15.499Z,8.48
2023-05-02T02:57:41.800Z,8.49
2023-05-02T03:00:08.075Z,8.45
2023-05-02T03:02:34.569Z,8.48
2023-05-02T03:05:00.875Z,8.50
2023-05-02T03:07:27.132Z,8.48
2023-05-02T03:09:53.423Z,8.48
2023-05-02T03:12:19.704Z,8.38
2023-05-02T03:14:45.956Z,8.45
2023-05-02T03:17:12.242Z,8.60
2023-05-02T03:19:38.553Z,8.67
2023-05-02T03:22:04.812Z,8.67
2023-05-02T03:24:31.085Z,8.62
2023-05-02T03:26:57.345Z,8.71
2023-05-02T03:29:23.613Z,8.65
2023-05-02T03:31:49.934Z,8.51
2023-05-02T03:34:16.204Z,8.37
2023-05-02T03:36:42.490Z,8.28
2023-05-02T03:39:08.768Z,8.23
2023-05-02T03:41:35.062Z,8.08
2023-05-02T03:44:01.355Z,8.08
2023-05-02T03:46:27.600Z,8.15
2023-05-02T03:48:53.910Z,8.23
2023-05-02T03:51:20.161Z,8.33
2023-05-02T03:53:46.441Z,8.45
2023-05-02T03:56:12.696Z,8.60
2023-05-02T03:58:38.969Z,8.70
2023-05-02T04:01:05.259Z,8.78
2023-05-02T04:03:31.570Z,8.68
2023-05-02T04:05:57.869Z,8.65
2023-05-02T04:08:24.116Z,8.52
2023-05-02T04:10:50.382Z,8.40
2023-05-02T04:13:16.634Z,8.39
2023-05-02T04:15:42.887Z,8.38
2023-05-02T04:18:09.234Z,8.34
2023-05-02T04:20:35.580Z,8.33
2023-05-02T04:23:01.855Z,8.13
2023-05-02T04:25:28.172Z,8.12
2023-05-02T04:27:54.437Z,8.07
2023-05-02T04:30:20.694Z,7.96
2023-05-02T04:32:46.982Z,7.81
2023-05-02T04:35:13.314Z,7.82
2023-05-02T04:37:39.604Z,7.83
2023-05-02T04:40:05.855Z,7.75
2023-05-02T04:42:32.164Z,7.80
2023-05-02T04:44:58.540Z,7.74
2023-05-02T04:47:24.851Z,7.86
2023-05-02T04:49:51.128Z,7.95
2023-05-02T04:52:17.414Z,7.97
2023-05-02T04:54:43.687Z,7.98
2023-05-02T04:57:09.937Z,8.12
2023-05-02T04:59:36.219Z,8.14
2023-05-02T05:02:02.580Z,8.37
2023-05-02T05:04:28.894Z,8.44
2023-05-02T05:06:55.211Z,8.55
2023-05-02T05:09:21.579Z,8.70
2023-05-02T05:11:47.861Z,8.83
2023-05-02T05:14:14.144Z,8.95
2023-05-02T05:16:40.482Z,9.05
2023-05-02T05:19:06.780Z,9.11
2023-05-02T05:21:33.038Z,9.16
2023-05-02T05:23:59.314Z,9.19
2023-05-02T05:26:25.596Z,9.25
2023-05-02T05:28:51.876Z,9.24
2023-05-02T05:31:18.193Z,9.25
2023-05-02T05:33:44.597Z,9.31
2023-05-02T05:36:10.940Z,9.41
2023-05-02T05:38:37.188Z,9.41
2023-05-02T05:41:03.469Z,9.47
2023-05-02T05:43:29.738Z,9.48
2023-05-02T05:45:56.054Z,9.52
2023-05-02T05:48:22.398Z,9.37
2023-05-02T05:50:48.694Z,9.31
2023-05-02T05:53:15.015Z,9.41
2023-05-02T05:55:42.352Z,9.47
2023-05-02T05:58:08.781Z,9.50
2023-05-02T06:00:35.060Z,9.59
2023-05-02T06:03:01.462Z,9.58
2023-05-02T06:05:27.832Z,9.68
2023-05-02T06:07:54.137Z,9.81
2023-05-02T06:10:20.417Z,9.91
2023-05-02T06:12:47.289Z,9.97
2023-05-02T06:15:15.400Z,10.05
2023-05-02T06:17:41.693Z,10.11
2023-05-02T06:20:08.044Z,10.18
2023-05-02T06:22:34.311Z,10.28
2023-05-02T06:25:00.575Z,10.30
2023-05-02T06:27:26.851Z,10.29
2023-05-02T06:29:53.156Z,10.38
2023-05-02T06:32:19.443Z,10.41
2023-05-02T06:34:45.696Z,10.45
2023-05-02T06:37:11.940Z,10.53
2023-05-02T06:39:38.209Z,10.60
2023-05-02T06:42:04.494Z,10.67
2023-05-02T06:44:30.789Z,10.76
2023-05-02T06:46:57.176Z,10.84
2023-05-02T06:49:23.477Z,10.82
2023-05-02T06:51:49.723Z,10.85
2023-05-02T06:54:16.054Z,10.88
2023-05-02T06:56:42.309Z,10.92
2023-05-02T06:59:08.554Z,11.01
2023-05-02T07:01:34.923Z,11.07
2023-05-02T07:04:01.333Z,11.13
2023-05-02T07:06:27.699Z,11.27
2023-05-02T07:08:54.016Z,11.33
2023-05-02T07:11:20.285Z,11.47
2023-05-02T07:13:46.597Z,11.58
2023-05-02T07:16:12.920Z,11.62
2023-05-02T07:18:39.178Z,11.54
2023-05-02T07:21:05.467Z,11.53
2023-05-02T07:23:31.822Z,11.70
2023-05-02T07:25:58.133Z,11.78
2023-05-02T07:28:24.399Z,11.87
2023-05-02T07:30:50.652Z,11.94
2023-05-02T07:33:17.106Z,11.91
2023-05-02T07:35:43.388Z,12.01
2023-05-02T07:38:09.662Z,12.06
2023-05-02T07:40:35.947Z,12.12
2023-05-02T07:43:02.222Z,12.18
2023-05-02T07:45:28.484Z,12.24
2023-05-02T07:47:54.818Z,12.22
2023-05-02T07:50:21.111Z,12.34
2023-05-02T07:52:47.414Z,12.42
2023-05-02T07:55:13.694Z,12.49
2023-05-02T07:57:39.976Z,12.47
2023-05-02T08:00:06.281Z,12.59
2023-05-02T08:02:32.639Z,12.72
2023-05-02T08:04:58.997Z,12.82
2023-05-02T08:07:25.310Z,12.83
2023-05-02T08:09:51.621Z,12.83
2023-05-02T08:12:17.872Z,12.84
2023-05-02T08:14:44.158Z,12.80
2023-05-02T08:17:10.415Z,12.81
2023-05-02T08:19:36.675Z,12.79
2023-05-02T08:22:02.974Z,12.84
2023-05-02T08:24:29.232Z,12.90
2023-05-02T08:26:55.522Z,12.95
2023-05-02T08:29:21.812Z,13.07
2023-05-02T08:31:48.137Z,13.10
2023-05-02T08:34:14.443Z,12.93
2023-05-02T08:36:40.738Z,12.94
2023-05-02T08:39:07.002Z,12.92
2023-05-02T08:41:33.279Z,12.93
2023-05-02T08:43:59.540Z,13.02
2023-05-02T08:46:25.837Z,13.09
2023-05-02T08:48:52.127Z,13.27
2023-05-02T08:53:49.592Z,13.38
2023-05-02T08:56:15.862Z,13.48
2023-05-02T08:58:42.144Z,13.64
2023-05-02T09:01:08.433Z,13.51
2023-05-02T09:03:34.709Z,13.38
2023-05-02T09:06:01.003Z,13.45
2023-05-02T09:08:27.428Z,13.50
2023-05-02T09:10:53.748Z,13.60
2023-05-02T09:13:20.039Z,13.73
2023-05-02T09:15:46.331Z,13.80
2023-05-02T09:18:12.585Z,13.83
2023-05-02T09:20:38.832Z,13.88
2023-05-02T09:23:05.110Z,13.85
2023-05-02T09:25:31.371Z,13.71
2023-05-02T09:27:57.637Z,13.80
2023-05-02T09:30:23.920Z,13.72
2023-05-02T09:32:50.236Z,13.86
2023-05-02T09:35:16.512Z,13.97
2023-05-02T09:37:42.786Z,14.04
2023-05-02T09:40:09.050Z,14.04
2023-05-02T09:42:35.316Z,14.01
2023-05-02T09:45:01.706Z,14.12
2023-05-02T09:47:28.083Z,14.05
2023-05-02T09:49:54.411Z,14.10
2023-05-02T09:52:20.658Z,14.21
2023-05-02T09:54:47.072Z,14.41
2023-05-02T09:57:13.501Z,14.51
2023-05-02T09:59:39.781Z,14.53
2023-05-02T10:02:06.026Z,14.42
2023-05-02T10:04:32.363Z,14.48
2023-05-02T10:06:58.734Z,14.37
2023-05-02T10:09:25.021Z,14.52
2023-05-02T10:11:51.285Z,14.65
2023-05-02T10:14:17.541Z,14.57
2023-05-02T10:16:43.917Z,14.77
2023-05-02T10:19:10.185Z,14.86
2023-05-02T10:21:36.476Z,14.95
2023-05-02T10:24:02.729Z,15.02
2023-05-02T10:26:29.014Z,15.20
2023-05-02T10:28:55.303Z,15.37
2023-05-02T10:31:21.639Z,15.49
2023-05-02T10:33:47.945Z,15.48
2023-05-02T10:36:14.230Z,15.40
2023-05-02T10:38:40.505Z,15.45
2023-05-02T10:41:06.771Z,15.56
2023-05-02T10:43:33.038Z,15.51
2023-05-02T10:45:59.361Z,15.60
2023-05-02T10:48:25.614Z,15.51
2023-05-02T10:50:51.895Z,15.52
2023-05-02T10:53:18.150Z,15.56
2023-05-02T10:55:44.420Z,15.70
2023-05-02T10:58:10.695Z,15.71
2023-05-02T11:00:36.955Z,15.72
2023-05-02T11:03:03.370Z,15.72
2023-05-02T11:05:29.763Z,15.73
2023-05-02T11:07:56.048Z,15.71
2023-05-02T11:10:22.311Z,15.66
2023-05-02T11:12:48.622Z,15.51
2023-05-02T11:15:14.891Z,15.61
2023-05-02T11:17:41.194Z,15.69
2023-05-02T11:20:07.475Z,15.61
2023-05-02T11:22:33.741Z,15.65
2023-05-02T11:25:00.197Z,15.45
2023-05-02T11:27:26.641Z,15.48
2023-05-02T11:29:52.892Z,15.64
2023-05-02T11:32:19.186Z,15.55
2023-05-02T11:34:45.571Z,15.79
2023-05-02T11:37:11.824Z,16.01
2023-05-02T11:39:38.061Z,16.16
2023-05-02T11:42:04.333Z,16.29
2023-05-02T11:44:30.587Z,16.39
2023-05-02T11:46:56.851Z,16.37
2023-05-02T11:49:23.122Z,16.32
2023-05-02T11:51:49.392Z,16.08
2023-05-02T11:54:15.706Z,16.03
2023-05-02T11:56:42.057Z,16.24
2023-05-02T11:59:08.343Z,16.35
2023-05-02T12:01:34.610Z,16.52
2023-05-02T12:04:01.044Z,16.50
2023-05-02T12:06:27.436Z,16.67
2023-05-02T12:08:53.779Z,16.68
2023-05-02T12:11:20.061Z,16.54
2023-05-02T12:13:46.346Z,16.70
2023-05-02T12:16:12.706Z,16.69
2023-05-02T12:18:39.011Z,16.70
2023-05-02T12:21:05.289Z,16.79
2023-05-02T12:23:31.563Z,16.90
2023-05-02T12:25:57.850Z,17.00
2023-05-02T12:28:24.143Z,16.94
2023-05-02T12:30:50.589Z,17.01
2023-05-02T12:33:16.975Z,17.21
2023-05-02T12:35:43.352Z,17.33
2023-05-02T12:38:09.853Z,17.42
2023-05-02T12:40:36.232Z,17.39
2023-05-02T12:43:02.537Z,17.51
2023-05-02T12:45:28.793Z,17.63
2023-05-02T12:47:55.149Z,17.71
2023-05-02T12:50:21.571Z,17.55
2023-05-02T12:52:47.876Z,17.63
2023-05-02T12:55:14.141Z,17.70
2023-05-02T12:57:40.433Z,17.75
2023-05-02T13:00:06.682Z,17.98
2023-05-02T13:02:33.147Z,17.86
2023-05-02T13:04:59.438Z,18.01
2023-05-02T13:07:25.716Z,18.06
2023-05-02T13:09:51.963Z,18.03
2023-05-02T13:12:18.252Z,18.08
2023-05-02T13:14:44.571Z,18.02
2023-05-02T13:17:10.973Z,18.10
2023-05-02T13:19:40.431Z,18.25
2023-05-02T13:22:08.676Z,18.53
2023-05-02T13:24:34.945Z,18.74
2023-05-02T13:27:01.212Z,18.90
2023-05-02T13:29:27.470Z,18.95
2023-05-02T13:31:53.758Z,19.06
2023-05-02T13:34:20.023Z,19.04
2023-05-02T13:36:46.671Z,19.23
2023-05-02T13:39:12.988Z,19.36
2023-05-02T13:41:39.312Z,19.42
2023-05-02T13:44:05.564Z,19.35
2023-05-02T13:46:31.914Z,19.28
2023-05-02T13:48:58.233Z,19.47
2023-05-02T13:51:24.524Z,19.51
2023-05-02T13:53:50.821Z,19.56
2023-05-02T13:56:17.097Z,19.65
2023-05-02T13:58:43.371Z,19.67
2023-05-02T14:01:09.688Z,19.65
2023-05-02T14:03:36.197Z,19.45
2023-05-02T14:06:02.611Z,19.11
2023-05-02T14:08:28.885Z,19.19
2023-05-02T14:10:55.187Z,19.43
2023-05-02T14:13:21.464Z,19.62
2023-05-02T14:15:47.814Z,19.66
2023-05-02T14:18:14.109Z,19.40
2023-05-02T14:20:41.452Z,19.53
2023-05-02T14:23:07.864Z,19.77
2023-05-02T14:25:34.235Z,20.06
2023-05-02T14:28:00.544Z,20.17
2023-05-02T14:30:26.802Z,20.24
2023-05-02T14:32:53.123Z,20.35
2023-05-02T14:35:19.460Z,20.48
2023-05-02T14:37:45.706Z,20.42
2023-05-02T14:40:11.995Z,20.41
2023-05-02T14:42:38.269Z,20.51
2023-05-02T14:45:04.530Z,20.50
2023-05-02T14:47:30.837Z,20.32
2023-05-02T14:49:57.162Z,20.29
2023-05-02T14:52:23.436Z,20.34
2023-05-02T14:54:49.690Z,20.54
2023-05-02T14:57:15.985Z,20.56
2023-05-02T14:59:42.280Z,20.65
2023-05-02T15:02:08.628Z,20.75
2023-05-02T15:04:34.999Z,20.94
2023-05-02T15:07:01.427Z,20.88
2023-05-02T15:09:27.794Z,20.83
2023-05-02T15:11:54.073Z,20.79
2023-05-02T15:14:20.434Z,20.88
2023-05-02T15:16:46.760Z,20.90
2023-05-02T15:19:13.085Z,20.94
2023-05-02T15:21:39.367Z,21.11
2023-05-02T15:24:05.643Z,21.34
2023-05-02T15:26:31.911Z,21.46
2023-05-02T15:28:58.183Z,21.54
2023-05-02T15:31:24.491Z,21.66
2023-05-02T15:33:50.812Z,21.66
2023-05-02T15:36:17.072Z,21.83
2023-05-02T15:38:43.363Z,22.08
2023-05-02T15:41:09.649Z,22.16
2023-05-02T15:43:35.918Z,22.32
2023-05-02T15:46:02.210Z,22.52
2023-05-02T15:48:28.633Z,22.32
2023-05-02T15:50:54.967Z,22.45
2023-05-02T15:53:21.248Z,22.60
2023-05-02T15:55:47.500Z,22.56
2023-05-02T15:58:13.790Z,22.66
2023-05-02T16:00:40.085Z,22.89
2023-05-02T16:03:06.492Z,23.17
2023-05-02T16:05:32.845Z,23.34
2023-05-02T16:07:59.097Z,23.74
2023-05-02T16:10:25.343Z,23.64
2023-05-02T16:12:51.640Z,23.92
2023-05-02T16:15:17.920Z,24.21
2023-05-02T16:17:44.250Z,24.38
2023-05-02T16:20:12.667Z,24.62
2023-05-02T16:22:39.144Z,24.83
2023-05-02T16:25:05.430Z,24.94
2023-05-02T16:27:31.724Z,24.96
2023-05-02T16:29:57.972Z,25.14
2023-05-02T16:32:24.328Z,25.38
2023-05-02T16:34:50.643Z,25.61
2023-05-02T16:37:16.933Z,25.47
2023-05-02T16:39:43.215Z,25.66
2023-05-02T16:42:09.493Z,25.87
2023-05-02T16:44:35.765Z,26.00
2023-05-02T16:47:02.131Z,26.39
2023-05-02T16:49:28.504Z,26.81
2023-05-02T16:51:54.761Z,26.85
2023-05-02T16:54:21.055Z,26.70
2023-05-02T16:56:47.366Z,26.74
2023-05-02T16:59:13.634Z,26.87
2023-05-02T17:01:39.904Z,27.09
2023-05-02T17:04:06.168Z,27.10
2023-05-02T17:06:32.463Z,27.29
2023-05-02T17:08:58.770Z,27.07
2023-05-02T17:11:25.014Z,27.00
2023-05-02T17:13:51.261Z,26.62
2023-05-02T17:16:17.607Z,26.55
2023-05-02T17:18:43.916Z,26.44
2023-05-02T17:21:10.195Z,26.28
2023-05-02T17:23:36.472Z,26.21
2023-05-02T17:26:02.728Z,25.87
2023-05-02T17:28:28.999Z,25.58
2023-05-02T17:30:55.358Z,24.85
2023-05-02T17:33:21.631Z,24.36
2023-05-02T17:35:47.949Z,23.76
2023-05-02T17:38:14.220Z,23.32
2023-05-02T17:40:40.494Z,22.97
2023-05-02T17:43:06.757Z,22.56
2023-05-02T17:45:33.051Z,22.13
2023-05-02T17:47:59.709Z,21.87
2023-05-02T17:50:27.085Z,21.55
2023-05-02T17:52:53.331Z,21.28
2023-05-02T17:55:19.593Z,21.04
2023-05-02T17:57:45.910Z,20.78
2023-05-02T18:00:12.176Z,20.46
2023-05-02T18:02:38.561Z,20.21
2023-05-02T18:05:05.145Z,20.01
2023-05-02T18:07:31.559Z,19.83
2023-05-02T18:09:57.820Z,19.70
2023-05-02T18:12:24.119Z,19.52
2023-05-02T18:14:50.389Z,19.37
2023-05-02T18:17:16.648Z,19.21
2023-05-02T18:19:42.904Z,19.12
2023-05-02T18:22:09.183Z,19.01
2023-05-02T18:24:35.508Z,18.83
2023-05-02T18:27:01.835Z,18.81
2023-05-02T18:29:28.098Z,18.68
2023-05-02T18:31:54.444Z,18.59
2023-05-02T18:34:20.789Z,18.36
2023-05-02T18:36:47.067Z,18.30
2023-05-02T18:39:13.495Z,18.17
2023-05-02T18:41:39.793Z,18.09
2023-05-02T18:44:06.087Z,18.01
2023-05-02T18:46:32.392Z,17.94
2023-05-02T18:48:58.712Z,17.77
2023-05-02T18:51:25.028Z,17.77
2023-05-02T18:53:51.361Z,17.48
2023-05-02T18:56:17.636Z,17.42
2023-05-02T18:58:43.927Z,17.31
2023-05-02T19:01:10.272Z,17.24
2023-05-02T19:03:36.737Z,17.25
2023-05-02T19:06:03.062Z,17.12
2023-05-02T19:08:29.345Z,17.02
2023-05-02T19:10:55.625Z,16.96
2023-05-02T19:13:21.900Z,16.88
2023-05-02T19:15:48.218Z,16.75
2023-05-02T19:18:14.530Z,16.60
2023-05-02T19:20:40.818Z,16.40
2023-05-02T19:23:18.959Z,16.16
2023-05-02T19:25:46.716Z,16.16
2023-05-02T19:28:12.990Z,16.12
2023-05-02T19:30:39.370Z,16.13
2023-05-02T19:33:05.661Z,16.09
2023-05-02T19:35:31.964Z,15.96
2023-05-02T19:37:58.233Z,15.97
2023-05-02T19:40:24.471Z,15.95
2023-05-02T19:42:50.733Z,15.90
2023-05-02T19:45:17.004Z,15.89
2023-05-02T19:47:43.323Z,15.89
2023-05-02T19:50:09.638Z,15.94
2023-05-02T19:52:35.903Z,15.87
2023-05-02T19:55:02.447Z,15.87
2023-05-02T19:57:28.888Z,15.79
2023-05-02T19:59:55.156Z,15.75
2023-05-02T20:02:21.487Z,15.72
2023-05-02T20:04:47.783Z,15.57
2023-05-02T20:07:14.030Z,15.53
2023-05-02T20:09:40.301Z,15.52
2023-05-02T20:12:06.608Z,15.61
2023-05-02T20:14:32.931Z,15.62
2023-05-02T20:17:01.346Z,15.65
2023-05-02T20:19:28.187Z,15.71
2023-05-02T20:21:54.447Z,15.68
2023-05-02T20:24:20.793Z,15.52
2023-05-02T20:26:47.078Z,15.46
2023-05-02T20:29:13.350Z,15.35
2023-05-02T20:31:39.686Z,15.35
2023-05-02T20:34:06.009Z,15.34
2023-05-02T20:36:32.310Z,15.36
2023-05-02T20:38:58.585Z,15.38
2023-05-02T20:41:24.866Z,15.42
2023-05-02T20:43:51.135Z,15.40
2023-05-02T20:46:17.476Z,15.42
2023-05-02T20:48:43.796Z,15.25
2023-05-02T20:51:10.069Z,15.02
2023-05-02T20:53:36.342Z,14.81
2023-05-02T20:56:02.617Z,14.71
2023-05-02T20:58:28.889Z,14.64
2023-05-02T21:00:55.145Z,14.56
2023-05-02T21:03:21.656Z,14.46
2023-05-02T21:05:48.011Z,14.26
2023-05-02T21:08:14.283Z,14.22
2023-05-02T21:10:40.566Z,14.24
2023-05-02T21:13:06.813Z,14.23
2023-05-02T21:15:33.094Z,14.28
2023-05-02T21:17:59.677Z,14.30
2023-05-02T21:20:26.152Z,14.22
2023-05-02T21:22:52.577Z,14.10
2023-05-02T21:25:18.960Z,13.84
2023-05-02T21:27:45.394Z,13.73
2023-05-02T21:30:11.813Z,13.51
2023-05-02T21:32:38.170Z,13.52
2023-05-02T21:35:07.327Z,13.37
2023-05-02T21:37:33.653Z,13.37
2023-05-02T21:40:00.441Z,13.20
2023-05-02T21:42:27.048Z,13.15
2023-05-02T21:44:53.295Z,12.90
2023-05-02T21:47:19.582Z,12.83
2023-05-02T21:49:45.854Z,12.73
2023-05-02T21:52:12.109Z,12.70
2023-05-02T21:54:38.387Z,12.77
2023-05-02T21:57:04.682Z,12.71
2023-05-02T21:59:30.928Z,12.58
2023-05-02T22:01:57.229Z,12.60
2023-05-02T22:04:23.545Z,12.64
2023-05-02T22:06:49.875Z,12.61
2023-05-02T22:09:16.171Z,12.49
2023-05-02T22:11:42.410Z,12.48
2023-05-02T22:14:08.696Z,12.56
2023-05-02T22:16:35.008Z,12.55
2023-05-02T22:19:01.327Z,12.56
2023-05-02T22:21:27.590Z,12.59
2023-05-02T22:23:53.863Z,12.63
2023-05-02T22:26:20.109Z,12.64
2023-05-02T22:28:46.351Z,12.61
2023-05-02T22:31:12.613Z,12.65
2023-05-02T22:33:38.880Z,12.58
2023-05-02T22:36:05.158Z,12.57
2023-05-02T22:38:31.434Z,12.65
2023-05-02T22:40:57.708Z,12.65
2023-05-02T22:43:23.967Z,12.61
2023-05-02T22:45:50.256Z,12.62
2023-05-02T22:48:16.551Z,12.64
2023-05-02T22:50:42.897Z,12.72
2023-05-02T22:53:09.169Z,12.76
2023-05-02T22:55:35.418Z,12.81
2023-05-02T22:58:01.658Z,12.81
2023-05-02T23:00:27.926Z,12.76
2023-05-02T23:02:54.281Z,12.77
2023-05-02T23:05:20.556Z,12.78
2023-05-02T23:07:46.812Z,12.71
2023-05-02T23:10:13.086Z,12.68
2023-05-02T23:12:39.335Z,12.55
2023-05-02T23:15:05.628Z,12.49
2023-05-02T23:17:31.890Z,12.52
2023-05-02T23:19:58.190Z,12.49
2023-05-02T23:22:24.457Z,12.46
2023-05-02T23:24:50.726Z,12.47
2023-05-02T23:27:16.998Z,12.51
2023-05-02T23:29:43.282Z,12.54
2023-05-02T23:32:09.540Z,12.52
2023-05-02T23:34:35.836Z,12.48
2023-05-02T23:37:02.074Z,12.37
2023-05-02T23:39:28.297Z,12.38
2023-05-02T23:41:54.549Z,12.18
2023-05-02T23:44:20.814Z,12.21
2023-05-02T23:46:47.160Z,12.01
2023-05-02T23:49:13.495Z,12.04
2023-05-02T23:51:39.780Z,12.12
2023-05-02T23:54:06.044Z,12.20
2023-05-02T23:56:32.315Z,12.04
2023-05-02T23:58:58.567Z,11.88
